Portada
METAR-TAF:

METAR-TAF

Aeropuertos :

Aeropuerto de Valencia

Valencia, España

latitud: 39-30N, longitud: 000-28W, altitud: 69 m

Observación

El informe se hizo hace 31 minutos, a las 20:00 UTC
Viento 2 kt del noroeste
Temperatura 12°C
Humedad 94%
Presión 1019 hPa
Visibilidad 10 km o más
sin nubes por debajo de 1500 m y sin presencia de cumulonimbus.

METAR: LEVC 292000Z 31002KT CAVOK 12/11 Q1019 NOSIG

Hora: 21:31 (20:31 UTC)

Pronóstico

El informe se hizo hace 3 horas y 31 minutos, a las 17:00 UTC
Pronóstico válido del 29 a las 18 UTC al 30 a las 18 UTC
Viento 6 kt del norte-noroeste
Visibilidad 10 km o más
Escasas nubes a una altura de 2500 ft
Probabilidad 30% :
Temporalmente
del 29 a las 20 UTC al 30 a las 07 UTC
Visibilidad: 3000 m
neblina

TAF: LEVC 291700Z 2918/3018 34006KT 9999 FEW025 TX18/3013Z TN08/3006Z PROB30 TEMPO 2920/3007 3000 BR

Observaciones y pronósticos meteorológicos de más de 4000 aeropuertos (mensajes METAR y TAF).

Los puntos amarillos y rojos representan las estaciones disponibles.

Ponga el ratón en el punto deseado para ver el nombre de la estación.

Haga clic para ver las observaciones y los pronósticos meteorológicos.

Para cambiar el mapa : haga clic en los botones verdes con una cruz de color negro para hacer un zoom, en el botón verde con un guión para alejar o en las flechas verdes para mapas adyacentes.


METAR-TAF: